createdAt,value
2022-12-11T00:00:27.516Z,91328.78
2022-12-11T00:02:55.300Z,91319.56
2022-12-11T00:05:22.587Z,91319.03
2022-12-11T00:07:49.804Z,91313.00
2022-12-11T00:10:17.456Z,91312.31
2022-12-11T00:12:44.868Z,91302.09
2022-12-11T00:15:12.485Z,91298.81
2022-12-11T00:17:40.502Z,91318.41
2022-12-11T00:20:08.244Z,91323.81
2022-12-11T00:22:35.529Z,91320.09
2022-12-11T00:25:03.580Z,91315.88
2022-12-11T00:27:30.803Z,91302.94
2022-12-11T00:29:59.674Z,91299.06
2022-12-11T00:32:28.550Z,91308.44
2022-12-11T00:34:56.117Z,91295.94
2022-12-11T00:37:23.591Z,91306.53
2022-12-11T00:39:51.680Z,91298.25
2022-12-11T00:42:18.985Z,91305.66
2022-12-11T00:44:46.246Z,91291.19
2022-12-11T00:47:13.872Z,91293.09
2022-12-11T00:49:43.932Z,91284.28
2022-12-11T00:52:17.957Z,91280.97
2022-12-11T00:54:45.564Z,91274.03
2022-12-11T00:57:12.827Z,91262.09
2022-12-11T00:59:40.582Z,91257.66
2022-12-11T01:02:08.084Z,91256.94
2022-12-11T01:04:38.420Z,91264.56
2022-12-11T01:07:06.126Z,91262.47
2022-12-11T01:09:52.567Z,91272.47
2022-12-11T01:12:20.334Z,91281.25
2022-12-11T01:14:47.692Z,91293.69
2022-12-11T01:17:14.993Z,91288.44
2022-12-11T01:19:42.664Z,91311.03
2022-12-11T01:22:10.065Z,91302.88
2022-12-11T01:24:38.252Z,91299.56
2022-12-11T01:27:05.864Z,91293.97
2022-12-11T01:29:33.163Z,91303.50
2022-12-11T01:32:00.406Z,91304.19
2022-12-11T01:34:32.102Z,91312.16
2022-12-11T01:36:59.721Z,91313.06
2022-12-11T01:39:27.027Z,91316.66
2022-12-11T01:41:58.612Z,91304.44
2022-12-11T01:44:25.762Z,91322.09
2022-12-11T01:46:53.432Z,91335.41
2022-12-11T01:49:25.243Z,91314.34
2022-12-11T01:52:00.808Z,91316.91
2022-12-11T01:54:29.357Z,91339.50
2022-12-11T01:57:00.611Z,91352.63
2022-12-11T01:59:31.738Z,91350.16
2022-12-11T02:02:26.566Z,91369.47
2022-12-11T02:04:54.357Z,91356.38
2022-12-11T02:07:22.037Z,91352.75
2022-12-11T02:09:50.229Z,91340.66
2022-12-11T02:12:24.017Z,91338.69
2022-12-11T02:15:16.546Z,91329.50
2022-12-11T02:17:47.099Z,91324.31
2022-12-11T02:20:53.287Z,91329.00
2022-12-11T02:23:27.124Z,91316.06
2022-12-11T02:26:13.029Z,91309.34
2022-12-11T02:29:14.786Z,91307.44
2022-12-11T02:31:47.479Z,91314.81
2022-12-11T02:34:32.769Z,91300.62
2022-12-11T02:37:05.990Z,91301.50
2022-12-11T02:39:39.035Z,91304.69
2022-12-11T02:42:08.248Z,91313.53
2022-12-11T02:44:37.194Z,91294.69
2022-12-11T02:47:07.860Z,91282.22
2022-12-11T02:49:36.140Z,91300.00
2022-12-11T02:52:06.442Z,91284.16
2022-12-11T02:54:37.966Z,91245.00
2022-12-11T02:57:14.702Z,91236.53
2022-12-11T02:59:44.525Z,91197.19
2022-12-11T03:02:15.692Z,91194.09
2022-12-11T03:04:44.842Z,91234.69
2022-12-11T03:07:17.312Z,91217.09
2022-12-11T03:09:47.503Z,91234.69
2022-12-11T03:12:20.948Z,91220.31
2022-12-11T03:14:49.877Z,91215.25
2022-12-11T03:17:19.427Z,91215.13
2022-12-11T03:19:49.835Z,91213.41
2022-12-11T03:22:22.304Z,91241.88
2022-12-11T03:24:55.319Z,91238.75
2022-12-11T03:27:47.565Z,91223.28
2022-12-11T03:30:18.687Z,91213.97
2022-12-11T03:32:54.616Z,91226.06
2022-12-11T03:35:30.620Z,91217.09
2022-12-11T03:38:02.596Z,91250.06
2022-12-11T03:40:33.367Z,91273.22
2022-12-11T03:43:01.096Z,91284.28
2022-12-11T03:45:30.458Z,91287.56
2022-12-11T03:48:01.743Z,91275.41
2022-12-11T03:50:32.293Z,91247.22
2022-12-11T03:53:02.022Z,91262.09
2022-12-11T03:55:30.916Z,91251.72
2022-12-11T03:57:58.310Z,91265.28
2022-12-11T04:00:25.935Z,91268.00
2022-12-11T04:03:13.877Z,91277.56
2022-12-11T04:05:50.277Z,91276.22
2022-12-11T04:08:21.085Z,91304.13
2022-12-11T04:10:49.204Z,91272.72
2022-12-11T04:13:16.504Z,91280.41
2022-12-11T04:15:44.144Z,91294.78
2022-12-11T04:18:29.963Z,91275.59
2022-12-11T04:21:16.175Z,91275.41
2022-12-11T04:24:01.792Z,91272.16
2022-12-11T04:26:29.374Z,91272.59
2022-12-11T04:28:56.718Z,91275.34
2022-12-11T04:31:24.490Z,91299.06
2022-12-11T04:33:52.475Z,91304.28
2022-12-11T04:36:19.823Z,91324.16
2022-12-11T04:38:48.098Z,91335.63
2022-12-11T04:41:17.691Z,91316.41
2022-12-11T04:43:45.568Z,91329.19
2022-12-11T04:46:20.130Z,91355.19
2022-12-11T04:48:55.472Z,91343.44
2022-12-11T04:51:24.940Z,91355.59
2022-12-11T04:53:54.458Z,91364.69
2022-12-11T04:56:21.930Z,91367.22
2022-12-11T04:58:49.971Z,91369.44
2022-12-11T05:01:20.531Z,91371.50
2022-12-11T05:03:48.468Z,91382.84
2022-12-11T05:06:15.985Z,91391.38
2022-12-11T05:08:45.345Z,91382.84
2022-12-11T05:11:16.516Z,91380.25
2022-12-11T05:13:45.839Z,91383.91
2022-12-11T05:16:15.966Z,91391.31
2022-12-11T05:18:43.885Z,91400.53
2022-12-11T05:21:13.948Z,91400.91
2022-12-11T05:23:42.400Z,91402.84
2022-12-11T05:26:15.879Z,91420.69
2022-12-11T05:28:44.083Z,91418.53
2022-12-11T05:31:19.882Z,91404.97
2022-12-11T05:33:49.094Z,91407.56
2022-12-11T05:36:23.019Z,91378.50
2022-12-11T05:38:51.537Z,91387.31
2022-12-11T05:41:22.455Z,91399.19
2022-12-11T05:43:50.312Z,91388.94
2022-12-11T05:46:29.861Z,91381.75
2022-12-11T05:48:59.705Z,91390.06
2022-12-11T05:51:28.220Z,91393.19
2022-12-11T05:53:57.786Z,91392.12
2022-12-11T05:56:31.483Z,91381.31
2022-12-11T05:59:00.597Z,91386.47
2022-12-11T06:01:34.746Z,91392.06
2022-12-11T06:04:03.625Z,91396.72
2022-12-11T06:06:30.974Z,91390.66
2022-12-11T06:08:59.203Z,91376.16
2022-12-11T06:11:33.018Z,91376.84
2022-12-11T06:14:03.870Z,91381.59
2022-12-11T06:16:32.312Z,91392.47
2022-12-11T06:18:59.987Z,91388.81
2022-12-11T06:21:32.610Z,91400.69
2022-12-11T06:24:03.321Z,91401.63
2022-12-11T06:26:32.336Z,91409.44
2022-12-11T06:29:00.139Z,91418.06
2022-12-11T06:31:28.141Z,91411.16
2022-12-11T06:33:56.102Z,91415.81
2022-12-11T06:36:24.549Z,91417.63
2022-12-11T06:38:52.520Z,91411.00
2022-12-11T06:41:20.000Z,91429.88
2022-12-11T06:43:47.685Z,91437.53
2022-12-11T06:46:18.282Z,91428.59
2022-12-11T06:48:46.480Z,91423.16
2022-12-11T06:51:20.686Z,91426.09
2022-12-11T06:53:56.454Z,91422.59
2022-12-11T06:56:25.040Z,91447.72
2022-12-11T06:58:52.549Z,91424.50
2022-12-11T07:01:25.416Z,91421.97
2022-12-11T07:03:58.490Z,91430.75
2022-12-11T07:06:28.545Z,91422.03
2022-12-11T07:08:56.956Z,91432.84
2022-12-11T07:11:24.328Z,91432.91
2022-12-11T07:13:51.703Z,91434.41
2022-12-11T07:16:19.693Z,91429.41
2022-12-11T07:18:49.402Z,91424.66
2022-12-11T07:21:17.245Z,91429.34
2022-12-11T07:23:45.070Z,91439.88
2022-12-11T07:26:15.294Z,91432.38
2022-12-11T07:28:43.229Z,91429.66
2022-12-11T07:31:13.701Z,91422.50
2022-12-11T07:33:42.490Z,91439.69
2022-12-11T07:36:12.339Z,91435.81
2022-12-11T07:38:40.717Z,91438.97
2022-12-11T07:41:11.235Z,91442.47
2022-12-11T07:43:38.954Z,91444.66
2022-12-11T07:46:09.738Z,91443.41
2022-12-11T07:48:38.328Z,91455.44
2022-12-11T07:51:10.719Z,91453.62
2022-12-11T07:53:39.224Z,91456.06
2022-12-11T07:56:07.510Z,91457.44
2022-12-11T07:58:36.215Z,91450.53
2022-12-11T08:01:03.881Z,91468.31
2022-12-11T08:03:31.691Z,91465.37
2022-12-11T08:05:59.063Z,91459.00
2022-12-11T08:08:26.478Z,91459.88
2022-12-11T08:10:54.399Z,91467.50
2022-12-11T08:13:21.781Z,91476.81
2022-12-11T08:15:49.206Z,91483.75
2022-12-11T08:18:16.866Z,91465.59
2022-12-11T08:20:44.223Z,91479.87
2022-12-11T08:23:12.144Z,91458.50
2022-12-11T08:25:39.843Z,91462.69
2022-12-11T08:28:07.349Z,91463.06
2022-12-11T08:30:34.856Z,91462.53
2022-12-11T08:33:02.591Z,91467.16
2022-12-11T08:35:29.880Z,91461.84
2022-12-11T08:37:57.169Z,91456.56
2022-12-11T08:40:24.976Z,91461.09
2022-12-11T08:42:52.538Z,91464.16
2022-12-11T08:45:19.884Z,91458.16
2022-12-11T08:47:47.565Z,91454.19
2022-12-11T08:50:14.844Z,91453.56
2022-12-11T08:52:42.287Z,91448.59
2022-12-11T08:55:10.457Z,91445.94
2022-12-11T08:57:39.904Z,91446.25
2022-12-11T09:00:09.691Z,91452.47
2022-12-11T09:02:37.403Z,91454.66
2022-12-11T09:05:08.242Z,91462.88
2022-12-11T09:07:37.022Z,91457.97
2022-12-11T09:10:06.425Z,91446.28
2022-12-11T09:12:34.804Z,91443.81
2022-12-11T09:15:02.548Z,91449.13
2022-12-11T09:17:30.924Z,91452.25
2022-12-11T09:19:58.228Z,91446.44
2022-12-11T09:22:25.539Z,91444.50
2022-12-11T09:24:53.264Z,91441.81
2022-12-11T09:27:21.526Z,91437.81
2022-12-11T09:29:49.418Z,91434.37
2022-12-11T09:32:17.449Z,91419.03
2022-12-11T09:34:44.932Z,91437.81
2022-12-11T09:37:12.257Z,91424.91
2022-12-11T09:39:39.877Z,91429.91
2022-12-11T09:42:13.235Z,91433.31
2022-12-11T09:44:43.795Z,91417.16
2022-12-11T09:47:25.361Z,91425.53
2022-12-11T09:50:13.021Z,91421.03
2022-12-11T09:52:49.606Z,91418.72
2022-12-11T09:55:20.550Z,91419.69
2022-12-11T09:58:06.549Z,91419.37
2022-12-11T10:00:41.385Z,91427.13
2022-12-11T10:03:35.434Z,91430.53
2022-12-11T10:06:21.461Z,91438.31
2022-12-11T10:09:24.557Z,91443.84
2022-12-11T10:12:13.918Z,91438.12
2022-12-11T10:14:59.835Z,91435.94
2022-12-11T10:17:34.157Z,91429.28
2022-12-11T10:20:31.331Z,91418.69
2022-12-11T10:22:59.561Z,91439.28
2022-12-11T10:25:35.711Z,91427.81
2022-12-11T10:28:14.974Z,91412.34
2022-12-11T10:30:51.712Z,91419.91
2022-12-11T10:33:34.841Z,91406.91
2022-12-11T10:36:02.556Z,91422.88
2022-12-11T10:38:38.500Z,91411.63
2022-12-11T10:41:13.993Z,91416.53
2022-12-11T10:43:49.862Z,91424.75
2022-12-11T10:46:21.494Z,91431.81
2022-12-11T10:48:53.590Z,91429.59
2022-12-11T10:51:35.070Z,91427.75
2022-12-11T10:54:24.462Z,91431.69
2022-12-11T10:56:52.271Z,91412.66
2022-12-11T10:59:49.434Z,91420.41
2022-12-11T11:02:25.695Z,91419.22
2022-12-11T11:04:55.360Z,91412.56
2022-12-11T11:07:33.336Z,91395.41
2022-12-11T11:10:15.683Z,91396.59
2022-12-11T11:12:50.638Z,91401.41
2022-12-11T11:15:25.910Z,91394.75
2022-12-11T11:17:56.308Z,91399.41
2022-12-11T11:20:27.924Z,91394.44
2022-12-11T11:22:59.982Z,91395.72
2022-12-11T11:25:29.978Z,91380.84
2022-12-11T11:28:01.353Z,91375.13
2022-12-11T11:30:36.912Z,91368.38
2022-12-11T11:33:17.885Z,91353.22
2022-12-11T11:36:02.548Z,91367.13
2022-12-11T11:38:36.380Z,91362.19
2022-12-11T11:41:19.205Z,91353.66
2022-12-11T11:43:49.180Z,91349.03
2022-12-11T11:46:33.638Z,91355.25
2022-12-11T11:49:15.116Z,91344.22
2022-12-11T11:52:01.316Z,91354.94
2022-12-11T11:54:35.840Z,91339.75
2022-12-11T11:57:17.890Z,91326.41
2022-12-11T11:59:51.031Z,91333.69
2022-12-11T12:02:20.185Z,91338.94
2022-12-11T12:04:49.582Z,91343.28
2022-12-11T12:07:22.909Z,91342.06
2022-12-11T12:10:26.860Z,91336.66
2022-12-11T12:13:44.345Z,91335.69
2022-12-11T12:16:02.238Z,91339.12
2022-12-11T12:18:44.376Z,91349.03
2022-12-11T12:21:27.963Z,91337.44
2022-12-11T12:24:06.905Z,91344.06
2022-12-11T12:26:37.579Z,91342.34
2022-12-11T12:29:16.997Z,91344.53
2022-12-11T12:32:23.662Z,91348.38
2022-12-11T12:35:22.200Z,91342.63
2022-12-11T12:37:57.457Z,91354.84
2022-12-11T12:40:43.847Z,91354.53
2022-12-11T12:43:23.766Z,91354.06
2022-12-11T12:46:10.532Z,91358.37
2022-12-11T12:48:38.841Z,91358.66
2022-12-11T12:51:07.173Z,91359.31
2022-12-11T12:53:37.093Z,91360.50
2022-12-11T12:56:06.413Z,91356.78
2022-12-11T12:58:39.898Z,91358.84
2022-12-11T13:01:14.697Z,91368.91
2022-12-11T13:04:02.441Z,91372.09
2022-12-11T13:06:37.859Z,91365.13
2022-12-11T13:09:25.310Z,91358.88
2022-12-11T13:11:58.197Z,91354.56
2022-12-11T13:14:31.257Z,91366.25
2022-12-11T13:17:21.614Z,91356.34
2022-12-11T13:19:53.143Z,91373.31
2022-12-11T13:22:23.560Z,91367.53
2022-12-11T13:24:53.856Z,91374.44
2022-12-11T13:27:37.368Z,91384.53
2022-12-11T13:30:26.506Z,91395.06
2022-12-11T13:33:08.008Z,91407.97
2022-12-11T13:35:35.913Z,91400.47
2022-12-11T13:38:08.172Z,91404.22
2022-12-11T13:40:41.114Z,91416.56
2022-12-11T13:43:26.305Z,91415.72
2022-12-11T13:46:00.812Z,91411.13
2022-12-11T13:48:31.450Z,91432.94
2022-12-11T13:50:59.851Z,91442.37
2022-12-11T13:53:27.219Z,91451.63
2022-12-11T13:56:07.065Z,91450.06
2022-12-11T13:58:38.724Z,91458.84
2022-12-11T14:01:32.751Z,91452.16
2022-12-11T14:04:16.221Z,91468.97
2022-12-11T14:06:44.156Z,91466.81
2022-12-11T14:09:22.140Z,91476.53
2022-12-11T14:11:56.438Z,91473.50
2022-12-11T14:14:29.196Z,91481.38
2022-12-11T14:16:56.756Z,91489.44
2022-12-11T14:19:25.163Z,91496.78
2022-12-11T14:21:58.696Z,91506.06
2022-12-11T14:24:26.188Z,91507.94
2022-12-11T14:26:54.615Z,91511.94
2022-12-11T14:29:28.178Z,91523.41
2022-12-11T14:31:57.675Z,91531.28
2022-12-11T14:34:35.719Z,91530.03
2022-12-11T14:37:06.544Z,91536.34
2022-12-11T14:40:00.105Z,91541.63
2022-12-11T14:42:32.836Z,91546.59
2022-12-11T14:45:20.311Z,91557.03
2022-12-11T14:47:48.600Z,91569.53
2022-12-11T14:50:23.617Z,91567.75
2022-12-11T14:52:59.217Z,91586.22
2022-12-11T14:55:35.405Z,91576.84
2022-12-11T14:58:15.461Z,91597.88
2022-12-11T15:00:42.800Z,91589.00
2022-12-11T15:03:10.422Z,91592.63
2022-12-11T15:05:49.950Z,91607.34
2022-12-11T15:08:30.509Z,91615.81
2022-12-11T15:11:08.231Z,91609.28
2022-12-11T15:13:51.430Z,91618.75
2022-12-11T15:16:20.265Z,91616.37
2022-12-11T15:18:49.681Z,91615.81
2022-12-11T15:21:17.930Z,91635.56
2022-12-11T15:23:45.177Z,91633.50
2022-12-11T15:26:12.932Z,91632.87
2022-12-11T15:28:40.365Z,91639.00
2022-12-11T15:31:25.695Z,91643.19
2022-12-11T15:33:53.870Z,91637.22
2022-12-11T15:36:24.202Z,91671.19
2022-12-11T15:38:51.565Z,91658.09
2022-12-11T15:41:26.620Z,91658.44
2022-12-11T15:43:58.903Z,91667.12
2022-12-11T15:46:27.463Z,91664.63
2022-12-11T15:48:56.493Z,91671.69
2022-12-11T15:51:23.824Z,91671.44
2022-12-11T15:53:51.501Z,91662.69
2022-12-11T15:56:18.872Z,91659.75
2022-12-11T15:58:47.772Z,91684.31
2022-12-11T16:01:15.343Z,91681.09
2022-12-11T16:03:43.151Z,91687.22
2022-12-11T16:06:13.769Z,91687.81
2022-12-11T16:08:42.426Z,91687.56
2022-12-11T16:11:15.429Z,91696.69
2022-12-11T16:13:43.206Z,91702.59
2022-12-11T16:16:10.939Z,91697.72
2022-12-11T16:18:38.249Z,91708.75
2022-12-11T16:21:06.713Z,91704.44
2022-12-11T16:23:34.406Z,91712.19
2022-12-11T16:26:06.876Z,91719.75
2022-12-11T16:28:34.425Z,91719.56
2022-12-11T16:31:02.101Z,91733.13
2022-12-11T16:33:29.516Z,91742.06
2022-12-11T16:35:57.979Z,91733.34
2022-12-11T16:38:25.593Z,91749.00
2022-12-11T16:41:02.563Z,91755.22
2022-12-11T16:43:30.291Z,91764.13
2022-12-11T16:45:57.745Z,91752.44
2022-12-11T16:48:25.157Z,91756.69
2022-12-11T16:50:59.227Z,91767.28
2022-12-11T16:53:26.499Z,91780.88
2022-12-11T16:55:54.143Z,91774.88
2022-12-11T16:58:21.571Z,91792.94
2022-12-11T17:00:49.785Z,91786.88
2022-12-11T17:03:19.260Z,91794.66
2022-12-11T17:05:47.762Z,91788.12
2022-12-11T17:08:15.287Z,91792.19
2022-12-11T17:10:44.413Z,91778.06
2022-12-11T17:13:11.822Z,91781.91
2022-12-11T17:15:43.738Z,91785.69
2022-12-11T17:18:12.095Z,91789.25
2022-12-11T17:20:43.836Z,91775.59
2022-12-11T17:23:12.614Z,91773.94
2022-12-11T17:25:44.870Z,91780.34
2022-12-11T17:28:13.775Z,91782.13
2022-12-11T17:30:42.858Z,91794.53
2022-12-11T17:33:11.196Z,91798.91
2022-12-11T17:35:39.194Z,91804.00
2022-12-11T17:38:06.567Z,91805.03
2022-12-11T17:40:34.012Z,91792.87
2022-12-11T17:43:02.140Z,91816.81
2022-12-11T17:45:29.480Z,91815.78
2022-12-11T17:47:56.875Z,91820.16
2022-12-11T17:50:24.511Z,91818.91
2022-12-11T17:52:52.165Z,91816.22
2022-12-11T17:55:19.603Z,91804.34
2022-12-11T17:57:49.194Z,91797.97
2022-12-11T18:00:17.044Z,91805.41
2022-12-11T18:02:44.764Z,91802.25
2022-12-11T18:05:12.522Z,91810.50
2022-12-11T18:07:40.273Z,91806.72
2022-12-11T18:10:10.994Z,91795.78
2022-12-11T18:12:39.434Z,91810.94
2022-12-11T18:15:07.814Z,91802.69
2022-12-11T18:17:35.614Z,91812.66
2022-12-11T18:20:03.796Z,91809.59
2022-12-11T18:22:31.306Z,91809.31
2022-12-11T18:24:59.005Z,91805.75
2022-12-11T18:27:26.496Z,91797.69
2022-12-11T18:29:54.859Z,91802.69
2022-12-11T18:32:23.895Z,91808.41
2022-12-11T18:34:51.302Z,91812.72
2022-12-11T18:37:21.179Z,91815.66
2022-12-11T18:39:53.584Z,91820.81
2022-12-11T18:42:36.164Z,91815.37
2022-12-11T18:45:04.478Z,91808.91
2022-12-11T18:47:31.820Z,91817.94
2022-12-11T18:50:03.953Z,91824.19
2022-12-11T18:52:37.090Z,91826.47
2022-12-11T18:55:05.013Z,91826.12
2022-12-11T18:57:34.737Z,91829.56
2022-12-11T19:00:07.633Z,91826.69
2022-12-11T19:02:35.758Z,91826.03
2022-12-11T19:05:03.086Z,91834.31
2022-12-11T19:07:30.877Z,91839.72
2022-12-11T19:09:58.428Z,91834.31
2022-12-11T19:12:26.387Z,91845.44
2022-12-11T19:14:54.743Z,91838.78
2022-12-11T19:17:22.617Z,91837.34
2022-12-11T19:19:52.691Z,91836.16
2022-12-11T19:22:20.751Z,91837.63
2022-12-11T19:24:48.026Z,91846.00
2022-12-11T19:27:15.244Z,91845.00
2022-12-11T19:29:42.938Z,91844.91
2022-12-11T19:32:10.341Z,91842.47
2022-12-11T19:34:38.731Z,91844.66
2022-12-11T19:37:06.579Z,91858.31
2022-12-11T19:39:34.113Z,91861.34
2022-12-11T19:42:01.635Z,91854.81
2022-12-11T19:44:29.383Z,91853.59
2022-12-11T19:46:56.868Z,91853.59
2022-12-11T19:49:24.401Z,91863.16
2022-12-11T19:51:52.090Z,91856.97
2022-12-11T19:54:19.522Z,91869.34
2022-12-11T19:56:46.918Z,91861.03
2022-12-11T19:59:17.862Z,91858.22
2022-12-11T20:01:48.168Z,91860.37
2022-12-11T20:04:16.950Z,91856.53
2022-12-11T20:06:46.357Z,91873.03
2022-12-11T20:09:14.361Z,91868.00
2022-12-11T20:11:48.449Z,91865.53
2022-12-11T20:14:23.139Z,91877.78
2022-12-11T20:19:40.164Z,91868.22
2022-12-11T20:22:08.038Z,91873.28
2022-12-11T20:24:36.337Z,91888.31
2022-12-11T20:27:04.056Z,91897.09
2022-12-11T20:29:32.260Z,91891.50
2022-12-11T20:32:00.584Z,91899.13
2022-12-11T20:34:28.392Z,91890.34
2022-12-11T20:36:56.513Z,91899.47
2022-12-11T20:39:24.875Z,91884.50
2022-12-11T20:41:52.195Z,91906.44
2022-12-11T20:44:20.477Z,91898.69
2022-12-11T20:46:47.845Z,91913.16
2022-12-11T20:49:15.183Z,91911.94
2022-12-11T20:51:42.995Z,91907.22
2022-12-11T20:54:10.333Z,91910.03
2022-12-11T20:56:38.184Z,91904.19
2022-12-11T20:59:06.071Z,91900.13
2022-12-11T21:01:35.022Z,91886.41
2022-12-11T21:04:02.763Z,91882.00
2022-12-11T21:06:33.557Z,91886.53
2022-12-11T21:09:06.503Z,91901.22
2022-12-11T21:11:34.631Z,91897.44
2022-12-11T21:14:02.026Z,91886.19
2022-12-11T21:16:29.633Z,91900.81
2022-12-11T21:18:58.948Z,91911.94
2022-12-11T21:21:26.693Z,91906.09
2022-12-11T21:23:54.105Z,91910.72
2022-12-11T21:26:21.961Z,91913.19
2022-12-11T21:28:49.388Z,91909.03
2022-12-11T21:31:18.694Z,91900.25
2022-12-11T21:33:47.103Z,91902.25
2022-12-11T21:36:15.895Z,91907.97
2022-12-11T21:38:44.595Z,91899.41
2022-12-11T21:41:16.704Z,91891.31
2022-12-11T21:44:40.834Z,91895.72
2022-12-11T21:46:35.288Z,91893.47
2022-12-11T21:49:02.765Z,91902.22
2022-12-11T21:51:37.776Z,91889.53
2022-12-11T21:54:10.481Z,91883.91
2022-12-11T21:56:37.810Z,91887.62
2022-12-11T21:59:05.465Z,91886.28
2022-12-11T22:01:41.147Z,91891.22
2022-12-11T22:04:10.940Z,91898.06
2022-12-11T22:06:38.338Z,91899.09
2022-12-11T22:09:06.004Z,91903.62
2022-12-11T22:11:36.485Z,91900.22
2022-12-11T22:14:04.982Z,91914.59
2022-12-11T22:16:33.254Z,91915.84
2022-12-11T22:19:01.155Z,91903.56
2022-12-11T22:21:29.033Z,91894.91
2022-12-11T22:23:56.556Z,91903.56
2022-12-11T22:26:26.958Z,91913.78
2022-12-11T22:28:55.497Z,91908.50
2022-12-11T22:31:25.137Z,91915.88
2022-12-11T22:33:55.083Z,91915.75
2022-12-11T22:36:23.039Z,91923.34
2022-12-11T22:38:50.390Z,91925.72
2022-12-11T22:41:26.416Z,91926.19
2022-12-11T22:43:54.808Z,91921.13
2022-12-11T22:46:24.501Z,91927.19
2022-12-11T22:48:52.632Z,91922.13
2022-12-11T22:51:20.810Z,91918.84
2022-12-11T22:53:48.595Z,91921.87
2022-12-11T22:56:16.541Z,91935.53
2022-12-11T22:58:43.890Z,91930.34
2022-12-11T23:01:15.279Z,91922.91
2022-12-11T23:03:42.772Z,91926.84
2022-12-11T23:06:12.779Z,91920.66
2022-12-11T23:08:41.482Z,91923.84
2022-12-11T23:11:15.596Z,91924.63
2022-12-11T23:13:44.575Z,91920.03
2022-12-11T23:16:12.842Z,91928.09
2022-12-11T23:18:40.654Z,91922.94
2022-12-11T23:21:09.175Z,91928.13
2022-12-11T23:23:36.569Z,91929.56
2022-12-11T23:26:05.319Z,91933.75
2022-12-11T23:28:33.023Z,91939.81
2022-12-11T23:31:00.688Z,91941.16
2022-12-11T23:33:28.089Z,91946.34
2022-12-11T23:35:55.830Z,91943.44
2022-12-11T23:38:23.409Z,91953.53
2022-12-11T23:40:52.205Z,91966.69
2022-12-11T23:43:20.054Z,91964.22
2022-12-11T23:45:47.427Z,91988.81
2022-12-11T23:48:15.025Z,91976.59
2022-12-11T23:50:44.076Z,91988.25
2022-12-11T23:53:12.017Z,91993.75
2022-12-11T23:55:41.659Z,92006.44
2022-12-11T23:58:10.916Z,92012.72
